createdAt,value
2022-09-01T00:00:01.833Z,0
2022-09-01T00:05:00.187Z,0
2022-09-01T00:10:00.265Z,0
2022-09-01T00:15:00.153Z,0
2022-09-01T00:20:00.192Z,0
2022-09-01T00:25:00.213Z,0
2022-09-01T00:30:04.758Z,0
2022-09-01T00:35:00.166Z,0
2022-09-01T00:40:00.163Z,0
2022-09-01T00:45:00.192Z,0
2022-09-01T00:50:00.196Z,0
2022-09-01T00:55:00.202Z,0
2022-09-01T01:00:00.213Z,0
2022-09-01T01:05:00.183Z,0
2022-09-01T01:10:00.205Z,0
2022-09-01T01:15:00.178Z,0
2022-09-01T01:20:00.177Z,0
2022-09-01T01:25:00.151Z,0
2022-09-01T01:30:00.176Z,0
2022-09-01T01:35:00.167Z,0
2022-09-01T01:40:00.177Z,0
2022-09-01T01:45:00.190Z,0
2022-09-01T01:50:00.182Z,0
2022-09-01T01:55:04.996Z,0
2022-09-01T02:00:00.202Z,0
2022-09-01T02:05:00.165Z,0
2022-09-01T02:45:00.170Z,0
2022-09-01T02:50:00.177Z,0
2022-09-01T02:55:00.175Z,0
2022-09-01T03:00:00.215Z,0
2022-09-01T03:05:00.329Z,0
2022-09-01T03:10:00.169Z,0
2022-09-01T03:15:00.181Z,0
2022-09-01T03:20:00.193Z,0
2022-09-01T03:25:00.195Z,0
2022-09-01T03:30:00.177Z,0
2022-09-01T03:35:00.173Z,0
2022-09-01T03:40:00.201Z,0
2022-09-01T03:45:00.179Z,0
2022-09-01T03:50:00.183Z,0
2022-09-01T03:55:00.181Z,0
2022-09-01T04:00:00.213Z,0
2022-09-01T04:05:00.167Z,0
2022-09-01T04:10:00.173Z,2
2022-09-01T04:15:00.179Z,4
2022-09-01T04:20:00.174Z,7
2022-09-01T04:25:00.183Z,15
2022-09-01T04:30:00.161Z,32
2022-09-01T04:35:00.177Z,64
2022-09-01T04:40:00.180Z,116
2022-09-01T04:45:01.922Z,137
2022-09-01T04:50:00.187Z,226
2022-09-01T04:55:00.180Z,354
2022-09-01T05:00:00.241Z,449
2022-09-01T05:05:00.192Z,641
2022-09-01T05:10:01.361Z,810
2022-09-01T05:15:00.292Z,909
2022-09-01T05:20:00.224Z,1146
2022-09-01T05:25:00.188Z,1335
2022-09-01T05:30:00.235Z,1451
2022-09-01T05:35:00.192Z,1631
2022-09-01T05:40:00.201Z,1833
2022-09-01T05:45:00.218Z,2049
2022-09-01T05:50:00.207Z,2060
2022-09-01T05:55:00.262Z,2060
2022-09-01T06:00:00.244Z,2315
2022-09-01T06:05:00.196Z,2315
2022-09-01T06:10:00.221Z,2315
2022-09-01T06:15:00.238Z,2315
2022-09-01T06:20:00.207Z,2752
2022-09-01T06:25:02.846Z,2935
2022-09-01T06:30:00.227Z,3273
2022-09-01T06:35:00.205Z,3298
2022-09-01T06:40:00.209Z,3726
2022-09-01T06:45:00.205Z,4735
2022-09-01T06:50:00.366Z,4168
2022-09-01T06:55:03.413Z,4168
2022-09-01T07:00:00.231Z,4722
2022-09-01T07:05:00.390Z,4722
2022-09-01T07:20:23.194Z,6416
2022-09-01T07:25:12.881Z,5257
2022-09-01T07:30:00.194Z,4676
2022-09-01T07:35:00.236Z,4676
2022-09-01T07:42:30.104Z,5306
2022-09-01T07:45:25.526Z,5375
2022-09-01T07:50:37.519Z,6115
2022-09-01T07:55:00.192Z,6111
2022-09-01T08:00:00.244Z,4883
2022-09-01T08:05:00.294Z,5341
2022-09-01T08:10:01.270Z,4755
2022-09-01T08:15:41.574Z,5198
2022-09-01T08:20:00.266Z,11210
2022-09-01T08:25:00.196Z,16661
2022-09-01T08:30:00.311Z,23158
2022-09-01T08:35:00.197Z,34324
2022-09-01T08:40:00.363Z,34324
2022-09-01T08:45:00.195Z,38521
2022-09-01T08:50:00.208Z,38521
2022-09-01T08:55:00.202Z,38521
2022-09-01T09:00:00.236Z,42325
2022-09-01T09:05:00.178Z,44227
2022-09-01T09:10:00.293Z,44227
2022-09-01T09:15:00.181Z,44227
2022-09-01T09:20:00.218Z,48551
2022-09-01T09:25:00.231Z,54651
2022-09-01T09:30:05.658Z,54651
2022-09-01T09:35:00.190Z,54651
2022-09-01T09:40:00.197Z,54651
2022-09-01T09:45:00.225Z,54651
2022-09-01T09:50:00.194Z,54651
2022-09-01T09:55:00.221Z,54651
2022-09-01T10:00:01.094Z,60855
2022-09-01T10:05:00.248Z,61348
2022-09-01T10:10:00.199Z,61348
2022-09-01T10:15:04.246Z,61348
2022-09-01T10:20:00.195Z,61348
2022-09-01T10:25:00.177Z,61348
2022-09-01T10:30:14.076Z,68992
2022-09-01T10:35:00.210Z,68992
2022-09-01T10:40:00.189Z,68992
2022-09-01T10:45:00.200Z,72594
2022-09-01T10:50:01.225Z,72594
2022-09-01T10:55:00.210Z,73371
2022-09-01T11:00:00.736Z,92512
2022-09-01T11:05:00.589Z,92512
2022-09-01T11:10:08.949Z,16440
2022-09-01T11:15:00.235Z,78163
2022-09-01T11:20:00.203Z,76507
2022-09-01T11:25:12.188Z,79360
2022-09-01T11:30:00.192Z,70664
2022-09-01T11:35:00.280Z,79855
2022-09-01T11:40:00.199Z,82376
2022-09-01T11:45:00.196Z,79050
2022-09-01T11:50:00.261Z,77988
2022-09-01T11:55:00.206Z,73316
2022-09-01T12:00:00.222Z,73316
2022-09-01T12:05:00.198Z,73316
2022-09-01T12:10:00.206Z,64536
2022-09-01T12:15:06.164Z,78361
2022-09-01T12:20:00.186Z,78361
2022-09-01T12:25:00.184Z,78361
2022-09-01T12:30:00.219Z,78361
2022-09-01T12:35:00.198Z,78091
2022-09-01T12:40:00.199Z,78596
2022-09-01T12:45:00.215Z,79131
2022-09-01T12:50:00.205Z,79131
2022-09-01T12:55:00.221Z,79131
2022-09-01T13:00:00.248Z,79131
2022-09-01T13:05:00.200Z,79131
2022-09-01T13:10:00.324Z,79131
2022-09-01T13:15:00.276Z,36771
2022-09-01T13:20:00.272Z,21873
2022-09-01T13:25:00.551Z,77589
2022-09-01T13:30:00.251Z,77589
2022-09-01T13:35:00.700Z,77589
2022-09-01T13:40:01.569Z,75442
2022-09-01T13:45:00.217Z,75442
2022-09-01T13:50:11.035Z,75442
2022-09-01T13:55:00.180Z,75442
2022-09-01T14:00:00.244Z,75442
2022-09-01T14:05:00.171Z,67967
2022-09-01T14:10:00.200Z,66252
2022-09-01T14:15:17.785Z,66252
2022-09-01T14:20:00.186Z,66252
2022-09-01T14:25:00.168Z,66252
2022-09-01T14:30:00.222Z,66252
2022-09-01T14:35:00.167Z,60343
2022-09-01T14:40:00.176Z,58911
2022-09-01T14:45:00.194Z,58911
2022-09-01T14:50:00.285Z,58911
2022-09-01T14:55:00.186Z,58911
2022-09-01T15:00:00.340Z,52396
2022-09-01T15:05:00.268Z,51856
2022-09-01T15:10:00.192Z,18034
2022-09-01T15:15:00.300Z,49545
2022-09-01T15:20:00.177Z,49545
2022-09-01T15:25:00.187Z,44076
2022-09-01T15:30:00.297Z,25200
2022-09-01T15:35:00.415Z,43611
2022-09-01T15:40:00.189Z,43611
2022-09-01T15:45:00.208Z,38753
2022-09-01T15:50:00.151Z,37844
2022-09-01T15:55:00.185Z,33589
2022-09-01T16:00:00.214Z,33589
2022-09-01T16:05:00.175Z,29923
2022-09-01T16:10:00.156Z,29923
2022-09-01T16:15:00.188Z,26662
2022-09-01T16:20:00.174Z,24116
2022-09-01T16:25:00.185Z,22897
2022-09-01T16:30:00.177Z,21159
2022-09-01T16:35:00.209Z,21159
2022-09-01T16:40:00.189Z,18785
2022-09-01T16:45:00.189Z,8249
2022-09-01T16:50:00.168Z,13983
2022-09-01T16:55:00.203Z,12153
2022-09-01T17:00:00.197Z,10802
2022-09-01T17:05:00.184Z,9603
2022-09-01T17:10:00.189Z,7534
2022-09-01T17:15:00.188Z,6699
2022-09-01T17:20:00.190Z,5286
2022-09-01T17:25:00.270Z,3653
2022-09-01T17:30:00.201Z,2172
2022-09-01T17:35:00.173Z,2205
2022-09-01T17:40:00.215Z,1938
2022-09-01T17:45:00.187Z,1721
2022-09-01T17:50:00.185Z,1530
2022-09-01T17:55:00.287Z,1207
2022-09-01T18:00:00.198Z,1074
2022-09-01T18:05:00.407Z,751
2022-09-01T18:10:00.174Z,592
2022-09-01T18:15:00.187Z,379
2022-09-01T18:20:00.211Z,264
2022-09-01T18:25:00.219Z,140
2022-09-01T18:30:00.204Z,142
2022-09-01T18:35:00.201Z,86
2022-09-01T18:40:00.194Z,45
2022-09-01T18:50:00.233Z,10
2022-09-01T18:55:00.259Z,5
2022-09-01T19:00:00.255Z,3
2022-09-01T19:05:00.186Z,2
2022-09-01T19:10:00.184Z,0
2022-09-01T19:15:00.197Z,0
2022-09-01T19:20:00.192Z,0
2022-09-01T19:25:00.183Z,0
2022-09-01T19:30:00.202Z,0
2022-09-01T19:35:00.179Z,0
2022-09-01T19:40:00.211Z,0
2022-09-01T19:45:00.199Z,0
2022-09-01T19:50:00.167Z,0
2022-09-01T19:55:00.186Z,0
2022-09-01T20:00:00.259Z,0
2022-09-01T20:05:00.178Z,0
2022-09-01T20:10:00.177Z,0
2022-09-01T20:15:00.188Z,0
2022-09-01T20:20:00.191Z,0
2022-09-01T20:25:00.191Z,0
2022-09-01T20:30:00.196Z,0
2022-09-01T20:35:00.178Z,0
2022-09-01T20:40:00.191Z,0
2022-09-01T20:45:00.202Z,0
2022-09-01T20:50:00.238Z,0
2022-09-01T20:55:00.195Z,0
2022-09-01T21:00:00.259Z,0
2022-09-01T21:05:00.207Z,0
2022-09-01T21:10:00.193Z,0
2022-09-01T21:15:00.184Z,0
2022-09-01T21:20:00.189Z,0
2022-09-01T21:25:00.154Z,0
2022-09-01T21:30:00.171Z,0
2022-09-01T21:35:00.201Z,0
2022-09-01T21:40:00.191Z,0
2022-09-01T21:45:00.190Z,0
2022-09-01T21:50:00.173Z,0
2022-09-01T21:55:00.175Z,0
2022-09-01T22:00:00.261Z,0
2022-09-01T22:05:00.180Z,0
2022-09-01T22:10:00.172Z,0
2022-09-01T22:15:00.172Z,0
2022-09-01T22:20:00.172Z,0
2022-09-01T22:25:00.173Z,0
2022-09-01T22:30:00.172Z,0
2022-09-01T22:35:00.211Z,0
2022-09-01T22:40:00.172Z,0
2022-09-01T22:45:00.197Z,0
2022-09-01T22:50:00.181Z,0
2022-09-01T22:55:00.154Z,0
2022-09-01T23:00:00.196Z,0
2022-09-01T23:05:00.172Z,0
2022-09-01T23:10:00.178Z,0
2022-09-01T23:15:00.173Z,0
2022-09-01T23:20:00.180Z,0
2022-09-01T23:25:00.177Z,0
2022-09-01T23:30:00.192Z,0
2022-09-01T23:35:00.169Z,0
2022-09-01T23:40:00.190Z,0
2022-09-01T23:45:00.189Z,0
2022-09-01T23:50:00.183Z,0
2022-09-01T23:55:00.172Z,0
